Observation data for Saint Lawrence on 08/12/2019      Previous  Date       Current Mesonet Observations  Soil Data  Daily Summary Page  Observations in Plain Language
KST1 120500Z 16011KT 29/12 A2999 RMK A01 T02890124  RH  037%=      5-min Rain = 0
KST1 120505Z 16011KT 29/13 A2999 RMK A01 T02890125  RH  037%=      5-min Rain = 0
KST1 120510Z 16010KT 29/13 A2999 RMK A01 T02880125  RH  037%=      5-min Rain = 0
KST1 120515Z 16010KT 29/12 A2999 RMK A01 T02860124  RH  037%=      5-min Rain = 0
KST1 120520Z 16010KT 28/12 A2999 RMK A01 T02840124  RH  038%=      5-min Rain = 0
KST1 120525Z 16010KT 28/13 A2999 RMK A01 T02840125  RH  038%=      5-min Rain = 0
KST1 120530Z 16010KT 28/13 A2999 RMK A01 T02830126  RH  039%=      5-min Rain = 0
KST1 120535Z 16010KT 28/13 A2999 RMK A01 T02830127  RH  039%=      5-min Rain = 0
KST1 120540Z 16010KT 28/13 A2999 RMK A01 T02830129  RH  039%=      5-min Rain = 0
KST1 120545Z 17010KT 28/13 A2999 RMK A01 T02830130  RH  039%=      5-min Rain = 0
KST1 120550Z 16009KT 28/13 A2999 RMK A01 T02820130  RH  040%=      5-min Rain = 0
KST1 120555Z 17009KT 28/13 A2999 RMK A01 T02800131  RH  041%=      5-min Rain = 0
KST1 120600Z 17010KT 28/13 A2999 RMK A01 T02820133  RH  041%=      5-min Rain = 0
KST1 120605Z 17010KT 28/14 A2999 RMK A01 T02830135  RH  041%=      5-min Rain = 0
KST1 120610Z 17010KT 28/14 A2999 RMK A01 T02820135  RH  041%=      5-min Rain = 0
KST1 120615Z 16009KT 28/14 A2999 RMK A01 T02810136  RH  042%=      5-min Rain = 0
KST1 120620Z 16009KT 28/14 A2999 RMK A01 T02800136  RH  042%=      5-min Rain = 0
KST1 120625Z 16009KT 28/14 A2999 RMK A01 T02790137  RH  042%=      5-min Rain = 0
KST1 120630Z 16008KT 28/14 A2999 RMK A01 T02790137  RH  043%=      5-min Rain = 0
KST1 120635Z 16009KT 28/14 A2999 RMK A01 T02790137  RH  043%=      5-min Rain = 0
KST1 120640Z 16009KT 28/14 A2999 RMK A01 T02770137  RH  043%=      5-min Rain = 0
KST1 120645Z 16009KT 28/14 A2999 RMK A01 T02770137  RH  043%=      5-min Rain = 0
KST1 120650Z 16010KT 28/14 A2998 RMK A01 T02770137  RH  043%=      5-min Rain = 0
KST1 120655Z 16009KT 28/14 A2998 RMK A01 T02770137  RH  043%=      5-min Rain = 0
KST1 120700Z 16009KT 27/14 A2998 RMK A01 T02740137  RH  044%=      5-min Rain = 0
KST1 120705Z 16008KT 27/14 A2998 RMK A01 T02730137  RH  044%=      5-min Rain = 0
KST1 120710Z 16008KT 27/14 A2998 RMK A01 T02710137  RH  044%=      5-min Rain = 0
KST1 120715Z 15007KT 27/14 A2998 RMK A01 T02690137  RH  045%=      5-min Rain = 0
KST1 120720Z 15008KT 27/14 A2997 RMK A01 T02690137  RH  045%=      5-min Rain = 0
KST1 120725Z 15008KT 27/14 A2997 RMK A01 T02690137  RH  045%=      5-min Rain = 0
KST1 120730Z 15008KT 27/14 A2997 RMK A01 T02690137  RH  045%=      5-min Rain = 0
KST1 120735Z 15008KT 27/14 A2997 RMK A01 T02690137  RH  045%=      5-min Rain = 0
KST1 120740Z 14008KT 27/14 A2997 RMK A01 T02670137  RH  045%=      5-min Rain = 0
KST1 120745Z 14008KT 27/14 A2997 RMK A01 T02660136  RH  046%=      5-min Rain = 0
KST1 120750Z 15009KT 27/14 A2997 RMK A01 T02660136  RH  046%=      5-min Rain = 0
KST1 120755Z 15009KT 27/14 A2997 RMK A01 T02670137  RH  045%=      5-min Rain = 0
KST1 120800Z 15009KT 27/14 A2997 RMK A01 T02690138  RH  045%=      5-min Rain = 0
KST1 120805Z 15011KT 27/14 A2997 RMK A01 T02710139  RH  045%=      5-min Rain = 0
KST1 120810Z 15010KT 27/14 A2997 RMK A01 T02720140  RH  045%=      5-min Rain = 0
KST1 120815Z 15010KT 27/14 A2997 RMK A01 T02700140  RH  046%=      5-min Rain = 0
KST1 120820Z 15010KT 27/14 A2997 RMK A01 T02710142  RH  046%=      5-min Rain = 0
KST1 120825Z 15011KT 27/14 A2997 RMK A01 T02710143  RH  046%=      5-min Rain = 0
KST1 120830Z 15012KT 27/15 A2997 RMK A01 T02710145  RH  047%=      5-min Rain = 0
KST1 120835Z 15013G18KT 27/15 A2997 RMK A01 T02710146  RH  047%=      5-min Rain = 0
KST1 120840Z 15011KT 27/15 A2997 RMK A01 T02700147  RH  048%=      5-min Rain = 0
KST1 120845Z 15010G15KT 27/15 A2997 RMK A01 T02680148  RH  048%=      5-min Rain = 0
KST1 120850Z 15010KT 27/15 A2997 RMK A01 T02670148  RH  049%=      5-min Rain = 0
KST1 120855Z 15009KT 27/15 A2996 RMK A01 T02650148  RH  050%=      5-min Rain = 0
KST1 120900Z 15010KT 27/15 A2996 RMK A01 T02650149  RH  050%=      5-min Rain = 0
KST1 120905Z 15010KT 26/15 A2996 RMK A01 T02640149  RH  050%=      5-min Rain = 0
KST1 120910Z 15009KT 26/15 A2997 RMK A01 T02630150  RH  051%=      5-min Rain = 0
KST1 120915Z 15008KT 26/15 A2997 RMK A01 T02620150  RH  051%=      5-min Rain = 0
KST1 120920Z 15008KT 26/15 A2997 RMK A01 T02610151  RH  052%=      5-min Rain = 0
KST1 120925Z 15008KT 26/15 A2997 RMK A01 T02590151  RH  053%=      5-min Rain = 0
KST1 120930Z 15008KT 26/15 A2997 RMK A01 T02590152  RH  053%=      5-min Rain = 0
KST1 120935Z 15008KT 26/15 A2997 RMK A01 T02580153  RH  053%=      5-min Rain = 0
KST1 120940Z 15009KT 26/16 A2997 RMK A01 T02590155  RH  054%=      5-min Rain = 0
KST1 120945Z 15009KT 26/16 A2997 RMK A01 T02590156  RH  054%=      5-min Rain = 0
KST1 120950Z 15009KT 26/16 A2997 RMK A01 T02590157  RH  055%=      5-min Rain = 0
KST1 120955Z 15009KT 26/16 A2997 RMK A01 T02590158  RH  055%=      5-min Rain = 0
KST1 121000Z 15010KT 26/16 A2997 RMK A01 T02580160  RH  056%=      5-min Rain = 0
KST1 121005Z 15009KT 26/16 A2997 RMK A01 T02580160  RH  056%=      5-min Rain = 0
KST1 121010Z 15009KT 26/16 A2997 RMK A01 T02570161  RH  057%=      5-min Rain = 0
KST1 121015Z 15009KT 26/16 A2997 RMK A01 T02570162  RH  057%=      5-min Rain = 0
KST1 121020Z 15009KT 26/16 A2997 RMK A01 T02560162  RH  057%=      5-min Rain = 0
KST1 121025Z 15008KT 25/16 A2997 RMK A01 T02540163  RH  058%=      5-min Rain = 0
KST1 121030Z 15007KT 25/16 A2996 RMK A01 T02520162  RH  059%=      5-min Rain = 0
KST1 121035Z 14006KT 25/16 A2996 RMK A01 T02460160  RH  060%=      5-min Rain = 0
KST1 121040Z 14006KT 24/16 A2996 RMK A01 T02420159  RH  061%=      5-min Rain = 0
KST1 121045Z 14007KT 24/16 A2996 RMK A01 T02410159  RH  062%=      5-min Rain = 0
KST1 121050Z 14006KT 24/16 A2996 RMK A01 T02400160  RH  062%=      5-min Rain = 0
KST1 121055Z 14006KT 24/16 A2996 RMK A01 T02390161  RH  063%=      5-min Rain = 0
KST1 121100Z 14006KT 24/16 A2996 RMK A01 T02390161  RH  063%=      5-min Rain = 0
KST1 121105Z 14007KT 24/16 A2996 RMK A01 T02390164  RH  064%=      5-min Rain = 0
KST1 121110Z 15007KT 24/17 A2997 RMK A01 T02410166  RH  064%=      5-min Rain = 0
KST1 121115Z 15007KT 24/17 A2997 RMK A01 T02420167  RH  064%=      5-min Rain = 0
KST1 121120Z 15007KT 24/17 A2997 RMK A01 T02420168  RH  065%=      5-min Rain = 0
KST1 121125Z 15006KT 24/17 A2997 RMK A01 T02420169  RH  065%=      5-min Rain = 0
KST1 121130Z 15006KT 24/17 A2997 RMK A01 T02410169  RH  066%=      5-min Rain = 0
KST1 121135Z 15007KT 24/17 A2997 RMK A01 T02400170  RH  066%=      5-min Rain = 0
KST1 121140Z 15007KT 24/17 A2997 RMK A01 T02410172  RH  067%=      5-min Rain = 0
KST1 121145Z 15007KT 24/17 A2998 RMK A01 T02410173  RH  067%=      5-min Rain = 0
KST1 121150Z 15007KT 24/18 A2998 RMK A01 T02420175  RH  068%=      5-min Rain = 0
KST1 121155Z 16007KT 24/18 A2998 RMK A01 T02430176  RH  068%=      5-min Rain = 0
KST1 121200Z 17007KT 24/18 A2998 RMK A01 T02440178  RH  068%=      5-min Rain = 0
KST1 121205Z 17007KT 24/18 A2999 RMK A01 T02440179  RH  069%=      5-min Rain = 0
KST1 121210Z 17008KT 24/18 A2999 RMK A01 T02430180  RH  070%=      5-min Rain = 0
KST1 121215Z 16008KT 24/18 A2999 RMK A01 T02430182  RH  070%=      5-min Rain = 0
KST1 121220Z 17008KT 24/18 A2999 RMK A01 T02440183  RH  070%=      5-min Rain = 0
KST1 121225Z 16008KT 25/18 A2999 RMK A01 T02450184  RH  071%=      5-min Rain = 0
KST1 121230Z 16009KT 25/19 A2999 RMK A01 T02460186  RH  071%=      5-min Rain = 0
KST1 121235Z 17009KT 25/19 A2999 RMK A01 T02470187  RH  071%=      5-min Rain = 0
KST1 121240Z 17009KT 25/19 A2999 RMK A01 T02480189  RH  072%=      5-min Rain = 0
KST1 121245Z 17009KT 25/19 A2999 RMK A01 T02490190  RH  072%=      5-min Rain = 0
KST1 121250Z 17009KT 25/19 A2999 RMK A01 T02500192  RH  072%=      5-min Rain = 0
KST1 121255Z 17009KT 25/19 A2999 RMK A01 T02510194  RH  072%=      5-min Rain = 0
KST1 121300Z 17010KT 25/20 A2999 RMK A01 T02530195  RH  072%=      5-min Rain = 0
KST1 121305Z 17009KT 25/20 A2999 RMK A01 T02540196  RH  072%=      5-min Rain = 0
KST1 121310Z 18009KT 26/20 A2999 RMK A01 T02560197  RH  072%=      5-min Rain = 0
KST1 121315Z 18010KT 26/20 A2999 RMK A01 T02570199  RH  072%=      5-min Rain = 0
KST1 121320Z 18011KT 26/20 A2999 RMK A01 T02580200  RH  072%=      5-min Rain = 0
KST1 121325Z 18013KT 26/20 A2999 RMK A01 T02600201  RH  072%=      5-min Rain = 0
KST1 121330Z 18013G18KT 26/20 A2999 RMK A01 T02610202  RH  072%=      5-min Rain = 0
KST1 121335Z 18011G18KT 26/20 A2999 RMK A01 T02640204  RH  071%=      5-min Rain = 0
KST1 121340Z 19013G19KT 27/20 A2999 RMK A01 T02650203  RH  071%=      5-min Rain = 0
KST1 121345Z 19014G19KT 27/20 A2999 RMK A01 T02660203  RH  070%=      5-min Rain = 0
KST1 121350Z 19013G19KT 27/20 A2999 RMK A01 T02680203  RH  070%=      5-min Rain = 0
KST1 121355Z 18014KT 27/20 A2999 RMK A01 T02690202  RH  069%=      5-min Rain = 0
KST1 121400Z 19015KT 27/20 A2999 RMK A01 T02700202  RH  068%=      5-min Rain = 0
KST1 121405Z 18016KT 27/20 A30 RMK A01 T02720201  RH  067%=      5-min Rain = 0
KST1 121410Z 18014KT 27/20 A30 RMK A01 T02730202  RH  067%=      5-min Rain = 0
KST1 121415Z 18014G19KT 28/20 A30 RMK A01 T02760201  RH  066%=      5-min Rain = 0
KST1 121420Z 18014KT 28/20 A30 RMK A01 T02770201  RH  065%=      5-min Rain = 0
KST1 121425Z 18014KT 28/20 A30 RMK A01 T02800201  RH  064%=      5-min Rain = 0
KST1 121430Z 18013KT 28/20 A30 RMK A01 T02830200  RH  062%=      5-min Rain = 0
KST1 121435Z 18014G20KT 28/20 A30 RMK A01 T02840198  RH  061%=      5-min Rain = 0
KST1 121440Z 18014KT 29/20 A30 RMK A01 T02870196  RH  060%=      5-min Rain = 0
KST1 121445Z 18012KT 29/20 A30 RMK A01 T02910197  RH  059%=      5-min Rain = 0
KST1 121450Z 18014KT 29/20 A30 RMK A01 T02910195  RH  058%=      5-min Rain = 0
KST1 121455Z 19012KT 29/20 A30 RMK A01 T02930195  RH  057%=      5-min Rain = 0
KST1 121500Z 19013KT 29/19 A30 RMK A01 T02940192  RH  056%=      5-min Rain = 0
KST1 121505Z 19012G18KT 30/19 A30 RMK A01 T02960192  RH  055%=      5-min Rain = 0
KST1 121510Z 19013G19KT 30/19 A30 RMK A01 T02980190  RH  054%=      5-min Rain = 0
KST1 121515Z 18015KT 30/19 A30 RMK A01 T03000189  RH  053%=      5-min Rain = 0
KST1 121520Z 18014KT 30/19 A30 RMK A01 T03020189  RH  052%=      5-min Rain = 0
KST1 121525Z 19012G17KT 30/19 A30 RMK A01 T03030189  RH  052%=      5-min Rain = 0
KST1 121530Z 20013KT 31/19 A30 RMK A01 T03050186  RH  050%=      5-min Rain = 0
KST1 121535Z 19012G18KT 31/19 A2999 RMK A01 T03090187  RH  049%=      5-min Rain = 0
KST1 121540Z 19012G17KT 31/19 A30 RMK A01 T03080185  RH  049%=      5-min Rain = 0
KST1 121545Z 18013G20KT 31/18 A2999 RMK A01 T03120184  RH  048%=      5-min Rain = 0
KST1 121550Z 20012G18KT 31/18 A2999 RMK A01 T03130184  RH  047%=      5-min Rain = 0
KST1 121555Z 19013G18KT 32/18 A30 RMK A01 T03150184  RH  047%=      5-min Rain = 0
KST1 121600Z 19012G18KT 32/18 A30 RMK A01 T03160184  RH  047%=      5-min Rain = 0
KST1 121605Z 20012G17KT 32/18 A30 RMK A01 T03160184  RH  046%=      5-min Rain = 0
KST1 121610Z 19011G17KT 32/19 A30 RMK A01 T03200186  RH  046%=      5-min Rain = 0
KST1 121615Z 20013G19KT 32/18 A30 RMK A01 T03220183  RH  045%=      5-min Rain = 0
KST1 121620Z 20011KT 32/18 A30 RMK A01 T03220182  RH  044%=      5-min Rain = 0
KST1 121625Z 21012KT 33/18 A2999 RMK A01 T03260177  RH  042%=      5-min Rain = 0
KST1 121630Z 21010G17KT 33/18 A2999 RMK A01 T03290176  RH  041%=      5-min Rain = 0
KST1 121635Z 22010G16KT 33/18 A2999 RMK A01 T03320176  RH  040%=      5-min Rain = 0
KST1 121640Z 20010G16KT 34/18 A2999 RMK A01 T03370178  RH  040%=      5-min Rain = 0
KST1 121645Z 22011G16KT 34/18 A2999 RMK A01 T03400175  RH  039%=      5-min Rain = 0
KST1 121650Z 21009G15KT 34/17 A2999 RMK A01 T03390172  RH  038%=      5-min Rain = 0
KST1 121655Z 21011KT 34/17 A2999 RMK A01 T03410168  RH  037%=      5-min Rain = 0
KST1 121700Z 22010G15KT 35/17 A2999 RMK A01 T03470166  RH  035%=      5-min Rain = 0
KST1 121705Z 21008G13KT 35/17 A2998 RMK A01 T03460165  RH  035%=      5-min Rain = 0
KST1 121710Z 21008KT 35/16 A2998 RMK A01 T03480163  RH  034%=      5-min Rain = 0
KST1 121715Z 21010G15KT 35/16 A2998 RMK A01 T03540162  RH  033%=      5-min Rain = 0
KST1 121720Z 21009G14KT 36/16 A2998 RMK A01 T03550156  RH  031%=      5-min Rain = 0
KST1 121725Z 22009G16KT 36/16 A2998 RMK A01 T03580155  RH  031%=      5-min Rain = 0
KST1 121730Z 21010G15KT 36/15 A2997 RMK A01 T03600149  RH  029%=      5-min Rain = 0
KST1 121735Z 23009KT 36/15 A2997 RMK A01 T03610145  RH  028%=      5-min Rain = 0
KST1 121740Z 26007G13KT 37/15 A2997 RMK A01 T03650145  RH  027%=      5-min Rain = 0
KST1 121745Z 25008G14KT 37/14 A2997 RMK A01 T03710143  RH  026%=      5-min Rain = 0
KST1 121750Z 24007G13KT 37/14 A2997 RMK A01 T03680139  RH  026%=      5-min Rain = 0
KST1 121755Z 24011KT 37/14 A2997 RMK A01 T03700136  RH  025%=      5-min Rain = 0
KST1 121800Z 23010KT 37/14 A2996 RMK A01 T03680135  RH  025%=      5-min Rain = 0
KST1 121805Z 25008KT 37/13 A2996 RMK A01 T03690133  RH  025%=      5-min Rain = 0
KST1 121810Z 24008KT 37/14 A2996 RMK A01 T03690136  RH  025%=      5-min Rain = 0
KST1 121815Z 23010G15KT 37/14 A2996 RMK A01 T03740135  RH  025%=      5-min Rain = 0
KST1 121820Z 25008G14KT 37/13 A2996 RMK A01 T03730133  RH  024%=      5-min Rain = 0
KST1 121825Z 26006G12KT 37/13 A2996 RMK A01 T03710134  RH  025%=      5-min Rain = 0
KST1 121830Z 23009KT 37/14 A2996 RMK A01 T03730135  RH  025%=      5-min Rain = 0
KST1 121835Z 23008G13KT 38/14 A2996 RMK A01 T03750135  RH  024%=      5-min Rain = 0
KST1 121840Z 23006KT 38/13 A2996 RMK A01 T03760133  RH  024%=      5-min Rain = 0
KST1 121845Z 21008G13KT 38/13 A2995 RMK A01 T03780133  RH  024%=      5-min Rain = 0
KST1 121850Z 22008G14KT 38/13 A2995 RMK A01 T03770127  RH  023%=      5-min Rain = 0
KST1 121855Z 22009KT 38/13 A2995 RMK A01 T03790125  RH  022%=      5-min Rain = 0
KST1 121900Z 25007KT 39/13 A2995 RMK A01 T03880126  RH  021%=      5-min Rain = 0
KST1 121905Z 20006G11KT 38/12 A2995 RMK A01 T03800124  RH  022%=      5-min Rain = 0
KST1 121910Z 22010G16KT 38/13 A2995 RMK A01 T03810129  RH  023%=      5-min Rain = 0
KST1 121915Z 22008KT 38/12 A2995 RMK A01 T03810123  RH  022%=      5-min Rain = 0
KST1 121920Z 20004KT 38/12 A2995 RMK A01 T03810120  RH  021%=      5-min Rain = 0
KST1 121925Z 20008KT 38/13 A2994 RMK A01 T03830125  RH  022%=      5-min Rain = 0
KST1 121930Z 19006G11KT 38/13 A2994 RMK A01 T03830125  RH  022%=      5-min Rain = 0
KST1 121935Z 18008G13KT 38/12 A2994 RMK A01 T03820123  RH  022%=      5-min Rain = 0
KST1 121940Z 23009KT 39/13 A2994 RMK A01 T03850126  RH  022%=      5-min Rain = 0
KST1 121945Z 25007G15KT 39/13 A2994 RMK A01 T03880126  RH  021%=      5-min Rain = 0
KST1 121950Z 22008G13KT 39/12 A2994 RMK A01 T03850119  RH  021%=      5-min Rain = 0
KST1 121955Z 25008KT 39/12 A2993 RMK A01 T03860120  RH  021%=      5-min Rain = 0
KST1 122000Z 27006G14KT 39/12 A2993 RMK A01 T03850121  RH  021%=      5-min Rain = 0
KST1 122005Z 23007G14KT 39/12 A2993 RMK A01 T03880120  RH  021%=      5-min Rain = 0
KST1 122010Z 23006G11KT 39/12 A2993 RMK A01 T03880115  RH  020%=      5-min Rain = 0
KST1 122015Z 15003KT 39/11 A2992 RMK A01 T03870113  RH  020%=      5-min Rain = 0
KST1 122020Z 20007G14KT 39/11 A2992 RMK A01 T03900114  RH  020%=      5-min Rain = 0
KST1 122025Z 19008G13KT 39/11 A2992 RMK A01 T03920114  RH  019%=      5-min Rain = 0
KST1 122030Z 21004G9KT 38/11 A2991 RMK A01 T03840113  RH  020%=      5-min Rain = 0
KST1 122035Z 22007KT 39/12 A2991 RMK A01 T03930119  RH  020%=      5-min Rain = 0
KST1 122040Z 20005G10KT 39/12 A2991 RMK A01 T03920118  RH  020%=      5-min Rain = 0
KST1 122045Z 18007G14KT 39/12 A2991 RMK A01 T03940121  RH  020%=      5-min Rain = 0
KST1 122050Z 21006G13KT 39/11 A2991 RMK A01 T03940112  RH  019%=      5-min Rain = 0
KST1 122055Z 20007G12KT 40/11 A2991 RMK A01 T03950111  RH  019%=      5-min Rain = 0
KST1 122100Z 22007G13KT 40/11 A299 RMK A01 T03970114  RH  019%=      5-min Rain = 0
KST1 122105Z 27010KT 40/11 A299 RMK A01 T04000112  RH  018%=      5-min Rain = 0
KST1 122110Z 27008KT 40/11 A299 RMK A01 T03970110  RH  018%=      5-min Rain = 0
KST1 122115Z 29007KT 39/11 A299 RMK A01 T03930108  RH  019%=      5-min Rain = 0
KST1 122120Z 24005G10KT 39/11 A2989 RMK A01 T03860109  RH  019%=      5-min Rain = 0
KST1 122125Z 23006G13KT 39/11 A2989 RMK A01 T03930110  RH  019%=      5-min Rain = 0
KST1 122130Z 22003KT 40/11 A2989 RMK A01 T03970110  RH  018%=      5-min Rain = 0
KST1 122135Z 18002G8KT 40/11 A2989 RMK A01 T04000109  RH  018%=      5-min Rain = 0
KST1 122140Z 16009G14KT 40/13 A2989 RMK A01 T04000127  RH  020%=      5-min Rain = 0
KST1 122145Z 16008KT 39/12 A2988 RMK A01 T03880123  RH  021%=      5-min Rain = 0
KST1 122150Z 19009G14KT 39/12 A2988 RMK A01 T03870117  RH  020%=      5-min Rain = 0
KST1 122155Z 19006G11KT 39/11 A2988 RMK A01 T03920109  RH  019%=      5-min Rain = 0
KST1 122200Z 22008KT 40/12 A2988 RMK A01 T03990119  RH  019%=      5-min Rain = 0
KST1 122205Z 21006G12KT 40/12 A2988 RMK A01 T03950115  RH  019%=      5-min Rain = 0
KST1 122210Z 22008G13KT 40/12 A2988 RMK A01 T03950115  RH  019%=      5-min Rain = 0
KST1 122215Z 19008G14KT 39/12 A2988 RMK A01 T03930115  RH  019%=      5-min Rain = 0
KST1 122220Z 20008KT 39/11 A2988 RMK A01 T03900112  RH  019%=      5-min Rain = 0
KST1 122225Z 24008KT 39/11 A2988 RMK A01 T03880111  RH  019%=      5-min Rain = 0
KST1 122230Z 19006G12KT 39/11 A2988 RMK A01 T03860114  RH  020%=      5-min Rain = 0
KST1 122235Z 17002KT 39/12 A2987 RMK A01 T03880117  RH  020%=      5-min Rain = 0
KST1 122240Z 19009G15KT 39/12 A2987 RMK A01 T03940117  RH  020%=      5-min Rain = 0
KST1 122245Z 19008G14KT 39/12 A2987 RMK A01 T03940116  RH  019%=      5-min Rain = 0
KST1 122250Z 18009G14KT 39/12 A2987 RMK A01 T03930121  RH  020%=      5-min Rain = 0
KST1 122255Z 17009KT 39/13 A2987 RMK A01 T03920125  RH  021%=      5-min Rain = 0
KST1 122300Z 16011KT 39/13 A2987 RMK A01 T03920129  RH  022%=      5-min Rain = 0
KST1 122305Z 16012G18KT 39/13 A2987 RMK A01 T03910125  RH  021%=      5-min Rain = 0
KST1 122310Z 17010KT 39/13 A2986 RMK A01 T03890125  RH  021%=      5-min Rain = 0
KST1 122315Z 18010G18KT 39/12 A2986 RMK A01 T03910124  RH  021%=      5-min Rain = 0
KST1 122320Z 19007KT 40/12 A2986 RMK A01 T03950120  RH  020%=      5-min Rain = 0
KST1 122325Z 17010KT 39/12 A2986 RMK A01 T03890123  RH  021%=      5-min Rain = 0
KST1 122330Z 18009KT 39/12 A2986 RMK A01 T03900119  RH  020%=      5-min Rain = 0
KST1 122335Z 18008G13KT 39/12 A2986 RMK A01 T03860120  RH  021%=      5-min Rain = 0
KST1 122340Z 18009KT 39/12 A2986 RMK A01 T03880119  RH  021%=      5-min Rain = 0
KST1 122345Z 17008KT 38/12 A2985 RMK A01 T03840123  RH  022%=      5-min Rain = 0
KST1 122350Z 17009KT 39/12 A2985 RMK A01 T03860123  RH  021%=      5-min Rain = 0
KST1 122355Z 17008KT 39/12 A2985 RMK A01 T03860124  RH  022%=      5-min Rain = 0
KST1 130000Z 18010KT 39/12 A2985 RMK A01 T03870119  RH  021%=      5-min Rain = 0
KST1 130005Z 17008KT 38/12 A2985 RMK A01 T03820124  RH  022%=      5-min Rain = 0
KST1 130010Z 16009KT 38/12 A2985 RMK A01 T03770123  RH  022%=      5-min Rain = 0
KST1 130015Z 17006KT 38/13 A2985 RMK A01 T03800126  RH  022%=      5-min Rain = 0
KST1 130020Z 17008KT 38/13 A2985 RMK A01 T03790126  RH  023%=      5-min Rain = 0
KST1 130025Z 17009KT 38/13 A2985 RMK A01 T03750126  RH  023%=      5-min Rain = 0
KST1 130030Z 17009KT 38/13 A2985 RMK A01 T03760130  RH  023%=      5-min Rain = 0
KST1 130035Z 17011KT 38/13 A2985 RMK A01 T03770132  RH  024%=      5-min Rain = 0
KST1 130040Z 17008KT 37/13 A2985 RMK A01 T03730134  RH  024%=      5-min Rain = 0
KST1 130045Z 16009KT 37/14 A2985 RMK A01 T03710135  RH  025%=      5-min Rain = 0
KST1 130050Z 16010KT 37/13 A2985 RMK A01 T03720133  RH  025%=      5-min Rain = 0
KST1 130055Z 17010KT 37/14 A2985 RMK A01 T03700135  RH  025%=      5-min Rain = 0
KST1 130100Z 17010KT 37/14 A2985 RMK A01 T03680136  RH  026%=      5-min Rain = 0
KST1 130105Z 15009KT 37/14 A2985 RMK A01 T03650137  RH  026%=      5-min Rain = 0
KST1 130110Z 15011KT 36/14 A2985 RMK A01 T03640135  RH  026%=      5-min Rain = 0
KST1 130115Z 16009KT 37/14 A2985 RMK A01 T03650135  RH  026%=      5-min Rain = 0
KST1 130120Z 15009KT 36/14 A2986 RMK A01 T03590135  RH  027%=      5-min Rain = 0
KST1 130125Z 15009KT 36/13 A2986 RMK A01 T03580133  RH  027%=      5-min Rain = 0
KST1 130130Z 16006KT 36/13 A2986 RMK A01 T03560134  RH  027%=      5-min Rain = 0
KST1 130135Z 16007KT 35/13 A2986 RMK A01 T03520134  RH  028%=      5-min Rain = 0
KST1 130140Z 16008KT 35/13 A2986 RMK A01 T03520133  RH  027%=      5-min Rain = 0
KST1 130145Z 15009KT 35/13 A2986 RMK A01 T03530132  RH  027%=      5-min Rain = 0
KST1 130150Z 15010KT 35/13 A2987 RMK A01 T03530132  RH  027%=      5-min Rain = 0
KST1 130155Z 15011KT 35/13 A2987 RMK A01 T03530133  RH  027%=      5-min Rain = 0
KST1 130200Z 15010KT 35/13 A2987 RMK A01 T03520134  RH  028%=      5-min Rain = 0
KST1 130205Z 15010KT 35/14 A2987 RMK A01 T03510135  RH  028%=      5-min Rain = 0
KST1 130210Z 16010KT 35/14 A2987 RMK A01 T03500136  RH  028%=      5-min Rain = 0
KST1 130215Z 16010KT 35/14 A2987 RMK A01 T03500137  RH  028%=      5-min Rain = 0
KST1 130220Z 16010KT 35/14 A2988 RMK A01 T03490137  RH  029%=      5-min Rain = 0
KST1 130225Z 16010KT 35/14 A2988 RMK A01 T03470137  RH  029%=      5-min Rain = 0
KST1 130230Z 16010KT 35/14 A2988 RMK A01 T03460138  RH  029%=      5-min Rain = 0
KST1 130235Z 17010KT 35/14 A2988 RMK A01 T03450139  RH  029%=      5-min Rain = 0
KST1 130240Z 17010KT 35/14 A2989 RMK A01 T03450139  RH  030%=      5-min Rain = 0
KST1 130245Z 17010KT 34/14 A2989 RMK A01 T03430139  RH  030%=      5-min Rain = 0
KST1 130250Z 17009KT 34/14 A2989 RMK A01 T03410140  RH  030%=      5-min Rain = 0
KST1 130255Z 17009KT 34/14 A299 RMK A01 T03400140  RH  031%=      5-min Rain = 0
KST1 130300Z 17008KT 34/14 A299 RMK A01 T03390140  RH  031%=      5-min Rain = 0
KST1 130305Z 18008KT 34/14 A299 RMK A01 T03370140  RH  031%=      5-min Rain = 0
KST1 130310Z 18007KT 34/14 A299 RMK A01 T03350140  RH  032%=      5-min Rain = 0
KST1 130315Z 17007KT 33/14 A299 RMK A01 T03330140  RH  032%=      5-min Rain = 0
KST1 130320Z 17007KT 33/14 A2991 RMK A01 T03310140  RH  032%=      5-min Rain = 0
KST1 130325Z 18007KT 33/14 A2991 RMK A01 T03300140  RH  033%=      5-min Rain = 0
KST1 130330Z 17009KT 33/14 A2991 RMK A01 T03300140  RH  033%=      5-min Rain = 0
KST1 130335Z 17010KT 33/14 A2991 RMK A01 T03320141  RH  032%=      5-min Rain = 0
KST1 130340Z 17010G16KT 33/14 A2991 RMK A01 T03330142  RH  032%=      5-min Rain = 0
KST1 130345Z 18011KT 33/14 A2991 RMK A01 T03340143  RH  032%=      5-min Rain = 0
KST1 130350Z 17010KT 33/14 A2991 RMK A01 T03320143  RH  033%=      5-min Rain = 0
KST1 130355Z 17010KT 33/14 A2991 RMK A01 T03300144  RH  033%=      5-min Rain = 0
KST1 130400Z 17010KT 33/15 A2991 RMK A01 T03290145  RH  034%=      5-min Rain = 0
KST1 130405Z 17010KT 33/15 A2991 RMK A01 T03290145  RH  034%=      5-min Rain = 0
KST1 130410Z 18011KT 33/15 A2991 RMK A01 T03290145  RH  034%=      5-min Rain = 0
KST1 130415Z 18010KT 33/15 A2991 RMK A01 T03270146  RH  034%=      5-min Rain = 0
KST1 130420Z 18011G16KT 33/15 A2991 RMK A01 T03270146  RH  034%=      5-min Rain = 0
KST1 130425Z 18012G17KT 33/15 A2991 RMK A01 T03260147  RH  035%=      5-min Rain = 0
KST1 130430Z 18012G17KT 33/15 A2992 RMK A01 T03260147  RH  035%=      5-min Rain = 0
KST1 130435Z 18014G19KT 33/15 A2992 RMK A01 T03260148  RH  035%=      5-min Rain = 0
KST1 130440Z 18014G19KT 33/15 A2992 RMK A01 T03250148  RH  035%=      5-min Rain = 0
KST1 130445Z 18013KT 32/15 A2992 RMK A01 T03240148  RH  035%=      5-min Rain = 0
KST1 130450Z 18015G21KT 32/15 A2992 RMK A01 T03240148  RH  035%=      5-min Rain = 0
KST1 130455Z 18012G17KT 32/15 A2992 RMK A01 T03210147  RH  036%=      5-min Rain = 0

Page generated in 0.0151 seconds.